<?xml version="1.0" encoding="UTF-8" standalone="no" ?>
<gpx xmlns="http://www.topografix.com/GPX/1/1" xmlns:xsi="http://www.w3.org/2001/XMLSchema-instance" xsi:schemaLocation="http://www.topografix.com/GPX/1/1 http://www.topografix.com/GPX/1/1/gpx.xsd" version="1.1" creator="VisuGPX - https://www.visugpx.com">
  <metadata>
    <name>B.H - Home &gt; Honoré Festif Labo</name>
    <desc><![CDATA[B.H - Home > Honoré Festif Labo]]></desc>
  </metadata>
  <trk>
    <name><![CDATA[B.H - Home > Honoré Festif Labo_1]]></name>
    <trkseg>
      <trkpt lat="47.14947" lon="-1.54107">
        <ele>26</ele>
        <time>2016-08-09T08:06:36Z</time>
      </trkpt>
      <trkpt lat="47.14947" lon="-1.54107">
        <ele>14.5</ele>
        <time>2016-08-09T08:06:40Z</time>
      </trkpt>
      <trkpt lat="47.14954" lon="-1.54111">
        <ele>14</ele>
        <time>2016-08-09T08:06:41Z</time>
      </trkpt>
      <trkpt lat="47.14959" lon="-1.54112">
        <ele>28.6</ele>
        <time>2016-08-09T08:06:57Z</time>
      </trkpt>
      <trkpt lat="47.1496" lon="-1.54121">
        <ele>28.6</ele>
        <time>2016-08-09T08:06:59Z</time>
      </trkpt>
      <trkpt lat="47.14957" lon="-1.54132">
        <ele>28.6</ele>
        <time>2016-08-09T08:07:01Z</time>
      </trkpt>
      <trkpt lat="47.14954" lon="-1.54157">
        <ele>28.6</ele>
        <time>2016-08-09T08:07:05Z</time>
      </trkpt>
      <trkpt lat="47.14951" lon="-1.54184">
        <ele>28.6</ele>
        <time>2016-08-09T08:07:08Z</time>
      </trkpt>
      <trkpt lat="47.14949" lon="-1.54204">
        <ele>28.6</ele>
        <time>2016-08-09T08:07:11Z</time>
      </trkpt>
      <trkpt lat="47.14966" lon="-1.54215">
        <ele>28.8</ele>
        <time>2016-08-09T08:07:14Z</time>
      </trkpt>
      <trkpt lat="47.1498" lon="-1.54219">
        <ele>29.2</ele>
        <time>2016-08-09T08:07:17Z</time>
      </trkpt>
      <trkpt lat="47.14989" lon="-1.54228">
        <ele>29.3</ele>
        <time>2016-08-09T08:07:19Z</time>
      </trkpt>
      <trkpt lat="47.14999" lon="-1.5423">
        <ele>29.3</ele>
        <time>2016-08-09T08:07:21Z</time>
      </trkpt>
      <trkpt lat="47.15022" lon="-1.5423">
        <ele>29.4</ele>
        <time>2016-08-09T08:07:25Z</time>
      </trkpt>
      <trkpt lat="47.15037" lon="-1.54208">
        <ele>29.9</ele>
        <time>2016-08-09T08:07:29Z</time>
      </trkpt>
      <trkpt lat="47.15046" lon="-1.5419">
        <ele>30.9</ele>
        <time>2016-08-09T08:07:32Z</time>
      </trkpt>
      <trkpt lat="47.15056" lon="-1.54168">
        <ele>31.5</ele>
        <time>2016-08-09T08:07:36Z</time>
      </trkpt>
      <trkpt lat="47.15064" lon="-1.54149">
        <ele>31.8</ele>
        <time>2016-08-09T08:07:39Z</time>
      </trkpt>
      <trkpt lat="47.15072" lon="-1.54131">
        <ele>32.3</ele>
        <time>2016-08-09T08:07:42Z</time>
      </trkpt>
      <trkpt lat="47.15079" lon="-1.54114">
        <ele>32.9</ele>
        <time>2016-08-09T08:07:45Z</time>
      </trkpt>
      <trkpt lat="47.15084" lon="-1.54093">
        <ele>33.2</ele>
        <time>2016-08-09T08:07:48Z</time>
      </trkpt>
      <trkpt lat="47.15091" lon="-1.54076">
        <ele>33.4</ele>
        <time>2016-08-09T08:07:51Z</time>
      </trkpt>
      <trkpt lat="47.151" lon="-1.54054">
        <ele>33.6</ele>
        <time>2016-08-09T08:07:55Z</time>
      </trkpt>
      <trkpt lat="47.15108" lon="-1.54037">
        <ele>33.7</ele>
        <time>2016-08-09T08:07:58Z</time>
      </trkpt>
      <trkpt lat="47.15118" lon="-1.54015">
        <ele>34.1</ele>
        <time>2016-08-09T08:08:02Z</time>
      </trkpt>
      <trkpt lat="47.15126" lon="-1.53999">
        <ele>34.2</ele>
        <time>2016-08-09T08:08:05Z</time>
      </trkpt>
      <trkpt lat="47.15133" lon="-1.53983">
        <ele>34.2</ele>
        <time>2016-08-09T08:08:08Z</time>
      </trkpt>
      <trkpt lat="47.15142" lon="-1.5396">
        <ele>34.2</ele>
        <time>2016-08-09T08:08:12Z</time>
      </trkpt>
      <trkpt lat="47.15152" lon="-1.5394">
        <ele>34.2</ele>
        <time>2016-08-09T08:08:16Z</time>
      </trkpt>
      <trkpt lat="47.15166" lon="-1.53925">
        <ele>34.1</ele>
        <time>2016-08-09T08:08:20Z</time>
      </trkpt>
      <trkpt lat="47.15178" lon="-1.53924">
        <ele>34</ele>
        <time>2016-08-09T08:08:23Z</time>
      </trkpt>
      <trkpt lat="47.15184" lon="-1.53934">
        <ele>34</ele>
        <time>2016-08-09T08:08:25Z</time>
      </trkpt>
      <trkpt lat="47.15186" lon="-1.53958">
        <ele>34</ele>
        <time>2016-08-09T08:08:28Z</time>
      </trkpt>
      <trkpt lat="47.1519" lon="-1.53983">
        <ele>34</ele>
        <time>2016-08-09T08:08:31Z</time>
      </trkpt>
      <trkpt lat="47.15191" lon="-1.54007">
        <ele>34</ele>
        <time>2016-08-09T08:08:34Z</time>
      </trkpt>
      <trkpt lat="47.15195" lon="-1.54029">
        <ele>33.9</ele>
        <time>2016-08-09T08:08:37Z</time>
      </trkpt>
      <trkpt lat="47.15198" lon="-1.54052">
        <ele>33.9</ele>
        <time>2016-08-09T08:08:40Z</time>
      </trkpt>
      <trkpt lat="47.15201" lon="-1.54072">
        <ele>33.7</ele>
        <time>2016-08-09T08:08:43Z</time>
      </trkpt>
      <trkpt lat="47.15205" lon="-1.54095">
        <ele>33.5</ele>
        <time>2016-08-09T08:08:46Z</time>
      </trkpt>
      <trkpt lat="47.15208" lon="-1.54119">
        <ele>33.3</ele>
        <time>2016-08-09T08:08:50Z</time>
      </trkpt>
      <trkpt lat="47.15214" lon="-1.54144">
        <ele>32.7</ele>
        <time>2016-08-09T08:08:54Z</time>
      </trkpt>
      <trkpt lat="47.15214" lon="-1.54168">
        <ele>30.7</ele>
        <time>2016-08-09T08:08:58Z</time>
      </trkpt>
      <trkpt lat="47.15219" lon="-1.54188">
        <ele>30.3</ele>
        <time>2016-08-09T08:09:01Z</time>
      </trkpt>
      <trkpt lat="47.15224" lon="-1.54209">
        <ele>30.3</ele>
        <time>2016-08-09T08:09:04Z</time>
      </trkpt>
      <trkpt lat="47.15222" lon="-1.5423">
        <ele>30.2</ele>
        <time>2016-08-09T08:09:07Z</time>
      </trkpt>
      <trkpt lat="47.15224" lon="-1.5425">
        <ele>29.7</ele>
        <time>2016-08-09T08:09:10Z</time>
      </trkpt>
      <trkpt lat="47.15227" lon="-1.5427">
        <ele>29.5</ele>
        <time>2016-08-09T08:09:13Z</time>
      </trkpt>
      <trkpt lat="47.1523" lon="-1.5429">
        <ele>29.5</ele>
        <time>2016-08-09T08:09:16Z</time>
      </trkpt>
      <trkpt lat="47.15232" lon="-1.54312">
        <ele>29.5</ele>
        <time>2016-08-09T08:09:19Z</time>
      </trkpt>
      <trkpt lat="47.15235" lon="-1.54332">
        <ele>29.5</ele>
        <time>2016-08-09T08:09:22Z</time>
      </trkpt>
      <trkpt lat="47.15239" lon="-1.54354">
        <ele>29.5</ele>
        <time>2016-08-09T08:09:25Z</time>
      </trkpt>
      <trkpt lat="47.15243" lon="-1.54375">
        <ele>29.5</ele>
        <time>2016-08-09T08:09:28Z</time>
      </trkpt>
      <trkpt lat="47.15246" lon="-1.54398">
        <ele>29.5</ele>
        <time>2016-08-09T08:09:31Z</time>
      </trkpt>
      <trkpt lat="47.15245" lon="-1.54419">
        <ele>29.7</ele>
        <time>2016-08-09T08:09:34Z</time>
      </trkpt>
      <trkpt lat="47.15245" lon="-1.54441">
        <ele>29.8</ele>
        <time>2016-08-09T08:09:37Z</time>
      </trkpt>
      <trkpt lat="47.15244" lon="-1.54463">
        <ele>30.1</ele>
        <time>2016-08-09T08:09:40Z</time>
      </trkpt>
      <trkpt lat="47.15244" lon="-1.54488">
        <ele>30.1</ele>
        <time>2016-08-09T08:09:44Z</time>
      </trkpt>
      <trkpt lat="47.15242" lon="-1.5451">
        <ele>30.2</ele>
        <time>2016-08-09T08:09:47Z</time>
      </trkpt>
      <trkpt lat="47.15242" lon="-1.5453">
        <ele>30.4</ele>
        <time>2016-08-09T08:09:50Z</time>
      </trkpt>
      <trkpt lat="47.15247" lon="-1.54549">
        <ele>30.5</ele>
        <time>2016-08-09T08:09:53Z</time>
      </trkpt>
      <trkpt lat="47.15264" lon="-1.54557">
        <ele>30.5</ele>
        <time>2016-08-09T08:09:57Z</time>
      </trkpt>
      <trkpt lat="47.15276" lon="-1.54558">
        <ele>30.4</ele>
        <time>2016-08-09T08:10:00Z</time>
      </trkpt>
      <trkpt lat="47.15289" lon="-1.54562">
        <ele>30.2</ele>
        <time>2016-08-09T08:10:03Z</time>
      </trkpt>
      <trkpt lat="47.15299" lon="-1.54565">
        <ele>30.1</ele>
        <time>2016-08-09T08:10:05Z</time>
      </trkpt>
      <trkpt lat="47.15309" lon="-1.54566">
        <ele>30</ele>
        <time>2016-08-09T08:10:07Z</time>
      </trkpt>
      <trkpt lat="47.15327" lon="-1.54567">
        <ele>29.9</ele>
        <time>2016-08-09T08:10:11Z</time>
      </trkpt>
      <trkpt lat="47.15337" lon="-1.54568">
        <ele>29.9</ele>
        <time>2016-08-09T08:10:13Z</time>
      </trkpt>
      <trkpt lat="47.15346" lon="-1.54569">
        <ele>29.7</ele>
        <time>2016-08-09T08:10:15Z</time>
      </trkpt>
      <trkpt lat="47.1536" lon="-1.5457">
        <ele>29.6</ele>
        <time>2016-08-09T08:10:18Z</time>
      </trkpt>
      <trkpt lat="47.15374" lon="-1.54571">
        <ele>29.3</ele>
        <time>2016-08-09T08:10:21Z</time>
      </trkpt>
      <trkpt lat="47.15384" lon="-1.54571">
        <ele>28.9</ele>
        <time>2016-08-09T08:10:23Z</time>
      </trkpt>
      <trkpt lat="47.15402" lon="-1.54561">
        <ele>28.8</ele>
        <time>2016-08-09T08:10:27Z</time>
      </trkpt>
      <trkpt lat="47.15412" lon="-1.54567">
        <ele>28.8</ele>
        <time>2016-08-09T08:10:29Z</time>
      </trkpt>
      <trkpt lat="47.15424" lon="-1.5458">
        <ele>29.3</ele>
        <time>2016-08-09T08:10:32Z</time>
      </trkpt>
      <trkpt lat="47.15437" lon="-1.54579">
        <ele>29.1</ele>
        <time>2016-08-09T08:10:35Z</time>
      </trkpt>
      <trkpt lat="47.15447" lon="-1.54577">
        <ele>29</ele>
        <time>2016-08-09T08:10:37Z</time>
      </trkpt>
      <trkpt lat="47.15466" lon="-1.54574">
        <ele>28.7</ele>
        <time>2016-08-09T08:10:41Z</time>
      </trkpt>
      <trkpt lat="47.1548" lon="-1.54568">
        <ele>28</ele>
        <time>2016-08-09T08:10:44Z</time>
      </trkpt>
      <trkpt lat="47.15489" lon="-1.54577">
        <ele>27.9</ele>
        <time>2016-08-09T08:10:46Z</time>
      </trkpt>
      <trkpt lat="47.155" lon="-1.54589">
        <ele>27.7</ele>
        <time>2016-08-09T08:10:49Z</time>
      </trkpt>
      <trkpt lat="47.15514" lon="-1.54588">
        <ele>27.6</ele>
        <time>2016-08-09T08:10:52Z</time>
      </trkpt>
      <trkpt lat="47.15526" lon="-1.5459">
        <ele>27.6</ele>
        <time>2016-08-09T08:10:55Z</time>
      </trkpt>
      <trkpt lat="47.15541" lon="-1.54592">
        <ele>28</ele>
        <time>2016-08-09T08:10:58Z</time>
      </trkpt>
      <trkpt lat="47.15551" lon="-1.54595">
        <ele>28.3</ele>
        <time>2016-08-09T08:11:00Z</time>
      </trkpt>
      <trkpt lat="47.15565" lon="-1.546">
        <ele>28.6</ele>
        <time>2016-08-09T08:11:03Z</time>
      </trkpt>
      <trkpt lat="47.1558" lon="-1.54601">
        <ele>29.2</ele>
        <time>2016-08-09T08:11:06Z</time>
      </trkpt>
      <trkpt lat="47.156" lon="-1.54602">
        <ele>29.4</ele>
        <time>2016-08-09T08:11:10Z</time>
      </trkpt>
      <trkpt lat="47.15611" lon="-1.54603">
        <ele>29.7</ele>
        <time>2016-08-09T08:11:12Z</time>
      </trkpt>
      <trkpt lat="47.15621" lon="-1.54603">
        <ele>29.9</ele>
        <time>2016-08-09T08:11:14Z</time>
      </trkpt>
      <trkpt lat="47.15632" lon="-1.54604">
        <ele>30.5</ele>
        <time>2016-08-09T08:11:18Z</time>
      </trkpt>
      <trkpt lat="47.15653" lon="-1.54606">
        <ele>30.9</ele>
        <time>2016-08-09T08:11:21Z</time>
      </trkpt>
      <trkpt lat="47.15658" lon="-1.54606">
        <ele>31.1</ele>
        <time>2016-08-09T08:11:22Z</time>
      </trkpt>
      <trkpt lat="47.15674" lon="-1.54606">
        <ele>31.1</ele>
        <time>2016-08-09T08:11:26Z</time>
      </trkpt>
      <trkpt lat="47.15684" lon="-1.54606">
        <ele>31.1</ele>
        <time>2016-08-09T08:11:28Z</time>
      </trkpt>
      <trkpt lat="47.15698" lon="-1.54605">
        <ele>31</ele>
        <time>2016-08-09T08:11:31Z</time>
      </trkpt>
      <trkpt lat="47.15712" lon="-1.54604">
        <ele>30.9</ele>
        <time>2016-08-09T08:11:34Z</time>
      </trkpt>
      <trkpt lat="47.15722" lon="-1.54602">
        <ele>30.9</ele>
        <time>2016-08-09T08:11:36Z</time>
      </trkpt>
      <trkpt lat="47.15732" lon="-1.54601">
        <ele>30.8</ele>
        <time>2016-08-09T08:11:38Z</time>
      </trkpt>
      <trkpt lat="47.15742" lon="-1.546">
        <ele>30.8</ele>
        <time>2016-08-09T08:11:40Z</time>
      </trkpt>
      <trkpt lat="47.1575" lon="-1.54583">
        <ele>30.8</ele>
        <time>2016-08-09T08:11:42Z</time>
      </trkpt>
      <trkpt lat="47.15761" lon="-1.5457">
        <ele>30.9</ele>
        <time>2016-08-09T08:11:45Z</time>
      </trkpt>
      <trkpt lat="47.1576" lon="-1.54578">
        <ele>31.1</ele>
        <time>2016-08-09T08:11:48Z</time>
      </trkpt>
      <trkpt lat="47.15771" lon="-1.54579">
        <ele>31.1</ele>
        <time>2016-08-09T08:11:50Z</time>
      </trkpt>
      <trkpt lat="47.15783" lon="-1.54606">
        <ele>31.4</ele>
        <time>2016-08-09T08:11:54Z</time>
      </trkpt>
      <trkpt lat="47.15782" lon="-1.54643">
        <ele>31.5</ele>
        <time>2016-08-09T08:11:59Z</time>
      </trkpt>
      <trkpt lat="47.15788" lon="-1.54662">
        <ele>31.5</ele>
        <time>2016-08-09T08:12:02Z</time>
      </trkpt>
      <trkpt lat="47.15794" lon="-1.54685">
        <ele>31.5</ele>
        <time>2016-08-09T08:12:05Z</time>
      </trkpt>
      <trkpt lat="47.158" lon="-1.54706">
        <ele>31.5</ele>
        <time>2016-08-09T08:12:08Z</time>
      </trkpt>
      <trkpt lat="47.15805" lon="-1.54728">
        <ele>31.7</ele>
        <time>2016-08-09T08:12:11Z</time>
      </trkpt>
      <trkpt lat="47.15811" lon="-1.54749">
        <ele>31.8</ele>
        <time>2016-08-09T08:12:14Z</time>
      </trkpt>
      <trkpt lat="47.15816" lon="-1.5477">
        <ele>31.5</ele>
        <time>2016-08-09T08:12:17Z</time>
      </trkpt>
      <trkpt lat="47.15822" lon="-1.54791">
        <ele>31.4</ele>
        <time>2016-08-09T08:12:20Z</time>
      </trkpt>
      <trkpt lat="47.15828" lon="-1.54815">
        <ele>31.3</ele>
        <time>2016-08-09T08:12:23Z</time>
      </trkpt>
      <trkpt lat="47.15834" lon="-1.54835">
        <ele>31.2</ele>
        <time>2016-08-09T08:12:26Z</time>
      </trkpt>
      <trkpt lat="47.15837" lon="-1.54856">
        <ele>31.2</ele>
        <time>2016-08-09T08:12:29Z</time>
      </trkpt>
      <trkpt lat="47.15843" lon="-1.54876">
        <ele>31.4</ele>
        <time>2016-08-09T08:12:32Z</time>
      </trkpt>
      <trkpt lat="47.15848" lon="-1.54897">
        <ele>31.4</ele>
        <time>2016-08-09T08:12:35Z</time>
      </trkpt>
      <trkpt lat="47.15856" lon="-1.54923">
        <ele>31.4</ele>
        <time>2016-08-09T08:12:39Z</time>
      </trkpt>
      <trkpt lat="47.1586" lon="-1.54943">
        <ele>31.4</ele>
        <time>2016-08-09T08:12:42Z</time>
      </trkpt>
      <trkpt lat="47.15865" lon="-1.54965">
        <ele>31.4</ele>
        <time>2016-08-09T08:12:45Z</time>
      </trkpt>
      <trkpt lat="47.15871" lon="-1.54985">
        <ele>31.4</ele>
        <time>2016-08-09T08:12:48Z</time>
      </trkpt>
      <trkpt lat="47.15878" lon="-1.5501">
        <ele>31.2</ele>
        <time>2016-08-09T08:12:52Z</time>
      </trkpt>
      <trkpt lat="47.15889" lon="-1.55023">
        <ele>30.8</ele>
        <time>2016-08-09T08:12:55Z</time>
      </trkpt>
      <trkpt lat="47.15898" lon="-1.55037">
        <ele>30.5</ele>
        <time>2016-08-09T08:12:58Z</time>
      </trkpt>
      <trkpt lat="47.15898" lon="-1.55059">
        <ele>30.3</ele>
        <time>2016-08-09T08:13:01Z</time>
      </trkpt>
      <trkpt lat="47.15893" lon="-1.55081">
        <ele>30.1</ele>
        <time>2016-08-09T08:13:04Z</time>
      </trkpt>
      <trkpt lat="47.15895" lon="-1.55102">
        <ele>29.9</ele>
        <time>2016-08-09T08:13:07Z</time>
      </trkpt>
      <trkpt lat="47.15898" lon="-1.55127">
        <ele>29.6</ele>
        <time>2016-08-09T08:13:11Z</time>
      </trkpt>
      <trkpt lat="47.15909" lon="-1.55147">
        <ele>29.4</ele>
        <time>2016-08-09T08:13:14Z</time>
      </trkpt>
      <trkpt lat="47.15915" lon="-1.55171">
        <ele>29.3</ele>
        <time>2016-08-09T08:13:18Z</time>
      </trkpt>
      <trkpt lat="47.15919" lon="-1.55191">
        <ele>29</ele>
        <time>2016-08-09T08:13:21Z</time>
      </trkpt>
      <trkpt lat="47.15926" lon="-1.55219">
        <ele>28.9</ele>
        <time>2016-08-09T08:13:25Z</time>
      </trkpt>
      <trkpt lat="47.15931" lon="-1.55243">
        <ele>28.8</ele>
        <time>2016-08-09T08:13:29Z</time>
      </trkpt>
      <trkpt lat="47.15936" lon="-1.55263">
        <ele>28.8</ele>
        <time>2016-08-09T08:13:32Z</time>
      </trkpt>
      <trkpt lat="47.15942" lon="-1.55282">
        <ele>28.9</ele>
        <time>2016-08-09T08:13:35Z</time>
      </trkpt>
      <trkpt lat="47.15948" lon="-1.55304">
        <ele>29.1</ele>
        <time>2016-08-09T08:13:38Z</time>
      </trkpt>
      <trkpt lat="47.15952" lon="-1.55326">
        <ele>29.2</ele>
        <time>2016-08-09T08:13:41Z</time>
      </trkpt>
      <trkpt lat="47.15959" lon="-1.55345">
        <ele>29.2</ele>
        <time>2016-08-09T08:13:44Z</time>
      </trkpt>
      <trkpt lat="47.15963" lon="-1.55365">
        <ele>29</ele>
        <time>2016-08-09T08:13:47Z</time>
      </trkpt>
      <trkpt lat="47.15967" lon="-1.55386">
        <ele>29</ele>
        <time>2016-08-09T08:13:50Z</time>
      </trkpt>
      <trkpt lat="47.15973" lon="-1.55405">
        <ele>29</ele>
        <time>2016-08-09T08:13:53Z</time>
      </trkpt>
      <trkpt lat="47.15979" lon="-1.5543">
        <ele>29</ele>
        <time>2016-08-09T08:13:57Z</time>
      </trkpt>
      <trkpt lat="47.15984" lon="-1.5545">
        <ele>29.2</ele>
        <time>2016-08-09T08:14:00Z</time>
      </trkpt>
      <trkpt lat="47.15988" lon="-1.55476">
        <ele>29.2</ele>
        <time>2016-08-09T08:14:03Z</time>
      </trkpt>
      <trkpt lat="47.15992" lon="-1.55495">
        <ele>29.5</ele>
        <time>2016-08-09T08:14:06Z</time>
      </trkpt>
      <trkpt lat="47.15998" lon="-1.55518">
        <ele>29.8</ele>
        <time>2016-08-09T08:14:10Z</time>
      </trkpt>
      <trkpt lat="47.16005" lon="-1.55538">
        <ele>30</ele>
        <time>2016-08-09T08:14:13Z</time>
      </trkpt>
      <trkpt lat="47.16025" lon="-1.55563">
        <ele>30.2</ele>
        <time>2016-08-09T08:14:15Z</time>
      </trkpt>
      <trkpt lat="47.16011" lon="-1.55554">
        <ele>30.5</ele>
        <time>2016-08-09T08:14:18Z</time>
      </trkpt>
      <trkpt lat="47.16032" lon="-1.55557">
        <ele>30.5</ele>
        <time>2016-08-09T08:14:19Z</time>
      </trkpt>
      <trkpt lat="47.16054" lon="-1.55548">
        <ele>30.9</ele>
        <time>2016-08-09T08:14:23Z</time>
      </trkpt>
      <trkpt lat="47.16065" lon="-1.55545">
        <ele>33.5</ele>
        <time>2016-08-09T08:14:25Z</time>
      </trkpt>
      <trkpt lat="47.16075" lon="-1.55541">
        <ele>33.5</ele>
        <time>2016-08-09T08:14:27Z</time>
      </trkpt>
      <trkpt lat="47.16085" lon="-1.55537">
        <ele>34.5</ele>
        <time>2016-08-09T08:14:29Z</time>
      </trkpt>
      <trkpt lat="47.16096" lon="-1.55528">
        <ele>34.5</ele>
        <time>2016-08-09T08:14:31Z</time>
      </trkpt>
      <trkpt lat="47.16112" lon="-1.55522">
        <ele>34.8</ele>
        <time>2016-08-09T08:14:34Z</time>
      </trkpt>
      <trkpt lat="47.16123" lon="-1.55503">
        <ele>35.1</ele>
        <time>2016-08-09T08:14:36Z</time>
      </trkpt>
      <trkpt lat="47.1614" lon="-1.55496">
        <ele>36</ele>
        <time>2016-08-09T08:14:41Z</time>
      </trkpt>
      <trkpt lat="47.16151" lon="-1.55498">
        <ele>36.4</ele>
        <time>2016-08-09T08:14:43Z</time>
      </trkpt>
      <trkpt lat="47.16168" lon="-1.5549">
        <ele>36.8</ele>
        <time>2016-08-09T08:14:46Z</time>
      </trkpt>
      <trkpt lat="47.16188" lon="-1.5548">
        <ele>36.9</ele>
        <time>2016-08-09T08:14:49Z</time>
      </trkpt>
      <trkpt lat="47.16195" lon="-1.55477">
        <ele>36.9</ele>
        <time>2016-08-09T08:14:50Z</time>
      </trkpt>
      <trkpt lat="47.1622" lon="-1.55464">
        <ele>36.9</ele>
        <time>2016-08-09T08:14:54Z</time>
      </trkpt>
      <trkpt lat="47.1623" lon="-1.55459">
        <ele>36.9</ele>
        <time>2016-08-09T08:14:56Z</time>
      </trkpt>
      <trkpt lat="47.16237" lon="-1.55456">
        <ele>36.9</ele>
        <time>2016-08-09T08:14:57Z</time>
      </trkpt>
      <trkpt lat="47.16258" lon="-1.55444">
        <ele>36.9</ele>
        <time>2016-08-09T08:15:01Z</time>
      </trkpt>
      <trkpt lat="47.16282" lon="-1.55431">
        <ele>36.9</ele>
        <time>2016-08-09T08:15:05Z</time>
      </trkpt>
      <trkpt lat="47.16299" lon="-1.55421">
        <ele>36.9</ele>
        <time>2016-08-09T08:15:09Z</time>
      </trkpt>
      <trkpt lat="47.16304" lon="-1.55417">
        <ele>36.9</ele>
        <time>2016-08-09T08:15:10Z</time>
      </trkpt>
      <trkpt lat="47.16308" lon="-1.55414">
        <ele>36.7</ele>
        <time>2016-08-09T08:15:11Z</time>
      </trkpt>
      <trkpt lat="47.16316" lon="-1.55408">
        <ele>36.7</ele>
        <time>2016-08-09T08:15:13Z</time>
      </trkpt>
      <trkpt lat="47.16321" lon="-1.55404">
        <ele>36.7</ele>
        <time>2016-08-09T08:15:14Z</time>
      </trkpt>
      <trkpt lat="47.16325" lon="-1.554">
        <ele>36.7</ele>
        <time>2016-08-09T08:15:15Z</time>
      </trkpt>
      <trkpt lat="47.16339" lon="-1.55385">
        <ele>35.5</ele>
        <time>2016-08-09T08:15:18Z</time>
      </trkpt>
      <trkpt lat="47.16349" lon="-1.55369">
        <ele>34.3</ele>
        <time>2016-08-09T08:15:21Z</time>
      </trkpt>
      <trkpt lat="47.16358" lon="-1.55352">
        <ele>33.8</ele>
        <time>2016-08-09T08:15:24Z</time>
      </trkpt>
      <trkpt lat="47.16368" lon="-1.55334">
        <ele>33.7</ele>
        <time>2016-08-09T08:15:27Z</time>
      </trkpt>
      <trkpt lat="47.16377" lon="-1.55316">
        <ele>33.7</ele>
        <time>2016-08-09T08:15:30Z</time>
      </trkpt>
      <trkpt lat="47.16385" lon="-1.55299">
        <ele>33.7</ele>
        <time>2016-08-09T08:15:33Z</time>
      </trkpt>
      <trkpt lat="47.16395" lon="-1.55282">
        <ele>33.7</ele>
        <time>2016-08-09T08:15:36Z</time>
      </trkpt>
      <trkpt lat="47.16405" lon="-1.55266">
        <ele>33.7</ele>
        <time>2016-08-09T08:15:39Z</time>
      </trkpt>
      <trkpt lat="47.16416" lon="-1.55252">
        <ele>33.7</ele>
        <time>2016-08-09T08:15:42Z</time>
      </trkpt>
      <trkpt lat="47.16426" lon="-1.55239">
        <ele>33.7</ele>
        <time>2016-08-09T08:15:45Z</time>
      </trkpt>
      <trkpt lat="47.16444" lon="-1.55214">
        <ele>33.7</ele>
        <time>2016-08-09T08:15:50Z</time>
      </trkpt>
      <trkpt lat="47.16455" lon="-1.552">
        <ele>34.3</ele>
        <time>2016-08-09T08:15:53Z</time>
      </trkpt>
      <trkpt lat="47.16467" lon="-1.55183">
        <ele>35.6</ele>
        <time>2016-08-09T08:15:56Z</time>
      </trkpt>
      <trkpt lat="47.16477" lon="-1.55168">
        <ele>36.1</ele>
        <time>2016-08-09T08:15:59Z</time>
      </trkpt>
      <trkpt lat="47.16487" lon="-1.55152">
        <ele>36.5</ele>
        <time>2016-08-09T08:16:02Z</time>
      </trkpt>
      <trkpt lat="47.16497" lon="-1.55137">
        <ele>38.4</ele>
        <time>2016-08-09T08:16:05Z</time>
      </trkpt>
      <trkpt lat="47.16507" lon="-1.55121">
        <ele>39.7</ele>
        <time>2016-08-09T08:16:08Z</time>
      </trkpt>
      <trkpt lat="47.16518" lon="-1.55104">
        <ele>40.3</ele>
        <time>2016-08-09T08:16:11Z</time>
      </trkpt>
      <trkpt lat="47.16527" lon="-1.55087">
        <ele>40.6</ele>
        <time>2016-08-09T08:16:14Z</time>
      </trkpt>
      <trkpt lat="47.16537" lon="-1.5507">
        <ele>40.8</ele>
        <time>2016-08-09T08:16:17Z</time>
      </trkpt>
      <trkpt lat="47.16549" lon="-1.55049">
        <ele>41</ele>
        <time>2016-08-09T08:16:21Z</time>
      </trkpt>
      <trkpt lat="47.16559" lon="-1.55031">
        <ele>41.2</ele>
        <time>2016-08-09T08:16:24Z</time>
      </trkpt>
      <trkpt lat="47.16577" lon="-1.54997">
        <ele>41.3</ele>
        <time>2016-08-09T08:16:30Z</time>
      </trkpt>
      <trkpt lat="47.16586" lon="-1.54981">
        <ele>41.4</ele>
        <time>2016-08-09T08:16:33Z</time>
      </trkpt>
      <trkpt lat="47.16596" lon="-1.54962">
        <ele>41.5</ele>
        <time>2016-08-09T08:16:37Z</time>
      </trkpt>
      <trkpt lat="47.16602" lon="-1.54949">
        <ele>41.7</ele>
        <time>2016-08-09T08:16:40Z</time>
      </trkpt>
      <trkpt lat="47.16616" lon="-1.54933">
        <ele>41.7</ele>
        <time>2016-08-09T08:16:43Z</time>
      </trkpt>
      <trkpt lat="47.1663" lon="-1.54941">
        <ele>41.8</ele>
        <time>2016-08-09T08:16:46Z</time>
      </trkpt>
      <trkpt lat="47.1664" lon="-1.5492">
        <ele>42.2</ele>
        <time>2016-08-09T08:16:50Z</time>
      </trkpt>
      <trkpt lat="47.16636" lon="-1.54899">
        <ele>42.4</ele>
        <time>2016-08-09T08:16:53Z</time>
      </trkpt>
      <trkpt lat="47.16631" lon="-1.54879">
        <ele>42.7</ele>
        <time>2016-08-09T08:16:56Z</time>
      </trkpt>
      <trkpt lat="47.16629" lon="-1.54859">
        <ele>43.2</ele>
        <time>2016-08-09T08:16:59Z</time>
      </trkpt>
      <trkpt lat="47.16628" lon="-1.54839">
        <ele>43.4</ele>
        <time>2016-08-09T08:17:02Z</time>
      </trkpt>
      <trkpt lat="47.16622" lon="-1.54816">
        <ele>43.7</ele>
        <time>2016-08-09T08:17:06Z</time>
      </trkpt>
      <trkpt lat="47.16635" lon="-1.54807">
        <ele>43.7</ele>
        <time>2016-08-09T08:17:11Z</time>
      </trkpt>
      <trkpt lat="47.16638" lon="-1.54794">
        <ele>43.6</ele>
        <time>2016-08-09T08:17:15Z</time>
      </trkpt>
      <trkpt lat="47.16645" lon="-1.54799">
        <ele>39.3</ele>
        <time>2016-08-09T08:17:26Z</time>
      </trkpt>
      <trkpt lat="47.16645" lon="-1.54799">
        <ele>36.2</ele>
        <time>2016-08-09T08:17:26Z</time>
      </trkpt>
      <trkpt lat="47.16645" lon="-1.54799">
        <ele>36.2</ele>
        <time>2016-08-09T08:17:27Z</time>
      </trkpt>
    </trkseg>
  </trk>
</gpx>